createdAt,value
2022-09-09T00:00:27.853Z,13.80
2022-09-09T00:01:27.843Z,13.70
2022-09-09T00:02:27.987Z,13.80
2022-09-09T00:03:27.960Z,13.80
2022-09-09T00:04:27.816Z,13.70
2022-09-09T00:05:27.820Z,13.80
2022-09-09T00:06:27.790Z,13.60
2022-09-09T00:07:27.776Z,13.70
2022-09-09T00:08:27.797Z,14.10
2022-09-09T00:09:27.765Z,14.10
2022-09-09T00:10:27.747Z,14.40
2022-09-09T00:11:31.307Z,14.00
2022-09-09T00:12:27.741Z,14.20
2022-09-09T00:13:27.724Z,14.10
2022-09-09T00:14:27.699Z,14.20
2022-09-09T00:15:27.769Z,13.70
2022-09-09T00:16:27.679Z,13.80
2022-09-09T00:17:27.664Z,13.80
2022-09-09T00:18:27.674Z,13.70
2022-09-09T00:19:27.643Z,14.10
2022-09-09T00:20:27.637Z,14.00
2022-09-09T00:21:27.642Z,13.90
2022-09-09T00:22:27.612Z,14.20
2022-09-09T00:23:27.612Z,14.20
2022-09-09T00:24:27.590Z,14.20
2022-09-09T00:25:27.576Z,13.80
2022-09-09T00:26:27.568Z,13.80
2022-09-09T00:27:27.556Z,13.90
2022-09-09T00:28:27.561Z,14.20
2022-09-09T00:29:27.532Z,14.10
2022-09-09T00:30:27.522Z,14.10
2022-09-09T00:31:27.601Z,14.00
2022-09-09T00:32:27.503Z,14.00
2022-09-09T00:33:27.504Z,14.30
2022-09-09T00:34:27.480Z,14.10
2022-09-09T00:35:27.467Z,13.60
2022-09-09T00:36:27.460Z,13.90
2022-09-09T00:37:27.465Z,13.80
2022-09-09T00:38:27.459Z,13.90
2022-09-09T00:39:27.424Z,14.00
2022-09-09T00:40:27.500Z,14.20
2022-09-09T00:41:27.403Z,14.30
2022-09-09T00:42:27.397Z,14.00
2022-09-09T00:43:27.391Z,14.20
2022-09-09T00:44:27.370Z,14.00
2022-09-09T00:45:27.360Z,13.90
2022-09-09T00:46:27.495Z,13.80
2022-09-09T00:47:27.341Z,13.60
2022-09-09T00:48:27.342Z,14.00
2022-09-09T00:49:27.322Z,14.50
2022-09-09T00:50:27.306Z,14.20
2022-09-09T00:51:27.291Z,14.40
2022-09-09T00:52:27.282Z,14.10
2022-09-09T00:53:27.312Z,14.50
2022-09-09T00:54:27.261Z,14.30
2022-09-09T00:55:27.251Z,14.20
2022-09-09T00:56:27.250Z,14.30
2022-09-09T00:57:27.227Z,14.30
2022-09-09T00:58:27.225Z,14.40
2022-09-09T00:59:28.606Z,14.50
2022-09-09T01:00:27.193Z,14.30
2022-09-09T01:01:27.213Z,14.50
2022-09-09T01:02:27.250Z,14.30
2022-09-09T01:03:27.171Z,14.10
2022-09-09T01:04:27.150Z,14.40
2022-09-09T01:05:27.142Z,14.40
2022-09-09T01:06:27.131Z,14.20
2022-09-09T01:07:27.121Z,14.10
2022-09-09T01:08:27.119Z,14.20
2022-09-09T01:09:27.117Z,14.20
2022-09-09T01:10:27.086Z,14.30
2022-09-09T01:11:27.078Z,14.50
2022-09-09T01:12:27.064Z,14.40
2022-09-09T01:13:27.065Z,14.20
2022-09-09T01:14:27.039Z,14.30
2022-09-09T01:15:27.034Z,14.20
2022-09-09T01:16:27.071Z,14.10
2022-09-09T01:17:27.025Z,14.10
2022-09-09T01:18:27.006Z,14.40
2022-09-09T01:19:26.988Z,14.40
2022-09-09T01:20:26.976Z,14.30
2022-09-09T01:21:26.985Z,14.40
2022-09-09T01:22:26.954Z,14.40
2022-09-09T01:23:26.956Z,14.40
2022-09-09T01:24:26.936Z,14.40
2022-09-09T01:25:26.974Z,14.20
2022-09-09T01:26:26.931Z,14.20
2022-09-09T01:27:26.898Z,14.20
2022-09-09T01:28:26.901Z,14.30
2022-09-09T01:29:26.877Z,14.40
2022-09-09T01:30:26.902Z,14.60
2022-09-09T01:31:26.856Z,14.30
2022-09-09T01:32:26.845Z,14.30
2022-09-09T01:33:26.844Z,14.50
2022-09-09T01:34:26.830Z,14.30
2022-09-09T01:35:26.814Z,14.30
2022-09-09T01:36:26.805Z,14.40
2022-09-09T01:37:26.815Z,14.20
2022-09-09T01:38:26.820Z,14.30
2022-09-09T01:39:26.770Z,14.10
2022-09-09T01:40:26.758Z,14.20
2022-09-09T01:41:26.768Z,14.30
2022-09-09T01:42:26.734Z,14.20
2022-09-09T01:43:26.735Z,14.10
2022-09-09T01:44:26.717Z,14.10
2022-09-09T01:45:26.706Z,13.90
2022-09-09T01:46:26.705Z,14.40
2022-09-09T01:47:26.681Z,14.20
2022-09-09T01:48:26.787Z,14.30
2022-09-09T01:49:26.660Z,14.30
2022-09-09T01:50:26.648Z,14.50
2022-09-09T01:51:26.643Z,14.20
2022-09-09T01:52:26.625Z,14.40
2022-09-09T01:53:26.626Z,14.40
2022-09-09T01:54:26.605Z,14.10
2022-09-09T01:55:26.594Z,14.00
2022-09-09T01:56:26.581Z,14.10
2022-09-09T01:57:26.589Z,14.10
2022-09-09T01:58:26.574Z,14.20
2022-09-09T01:59:26.552Z,14.30
2022-09-09T02:00:26.538Z,14.20
2022-09-09T02:01:26.578Z,14.20
2022-09-09T02:02:26.594Z,14.40
2022-09-09T02:03:26.513Z,14.40
2022-09-09T02:04:26.494Z,14.20
2022-09-09T02:05:26.486Z,14.20
2022-09-09T02:06:26.474Z,14.10
2022-09-09T02:07:26.466Z,14.00
2022-09-09T02:08:26.457Z,14.20
2022-09-09T02:09:26.440Z,14.50
2022-09-09T02:10:26.429Z,14.40
2022-09-09T02:11:26.422Z,14.50
2022-09-09T02:12:26.405Z,14.40
2022-09-09T02:13:26.425Z,14.20
2022-09-09T02:14:26.384Z,14.60
2022-09-09T02:15:26.382Z,15.10
2022-09-09T02:16:26.421Z,14.30
2022-09-09T02:17:26.352Z,14.80
2022-09-09T02:18:26.364Z,14.20
2022-09-09T02:19:26.329Z,14.30
2022-09-09T02:20:26.318Z,14.20
2022-09-09T02:21:26.308Z,14.60
2022-09-09T02:22:26.295Z,14.50
2022-09-09T02:23:26.330Z,14.30
2022-09-09T02:24:26.273Z,14.50
2022-09-09T02:25:26.263Z,15.30
2022-09-09T02:26:26.252Z,14.50
2022-09-09T02:27:26.243Z,14.20
2022-09-09T02:28:26.241Z,14.20
2022-09-09T02:29:26.245Z,14.60
2022-09-09T02:30:26.245Z,14.20
2022-09-09T02:31:26.220Z,14.30
2022-09-09T02:32:26.191Z,14.50
2022-09-09T02:33:26.185Z,14.20
2022-09-09T02:34:26.198Z,14.90
2022-09-09T02:35:26.159Z,17.90
2022-09-09T02:36:26.142Z,14.40
2022-09-09T02:37:26.136Z,14.40
2022-09-09T02:38:26.136Z,14.50
2022-09-09T02:39:26.112Z,14.30
2022-09-09T02:40:26.098Z,14.10
2022-09-09T02:41:26.087Z,14.50
2022-09-09T02:42:26.075Z,14.50
2022-09-09T02:43:26.081Z,14.60
2022-09-09T02:44:26.069Z,16.50
2022-09-09T02:45:26.071Z,14.90
2022-09-09T02:46:26.035Z,14.40
2022-09-09T02:47:26.030Z,14.60
2022-09-09T02:48:26.026Z,14.30
2022-09-09T02:49:26.005Z,14.50
2022-09-09T02:50:25.993Z,14.40
2022-09-09T02:51:25.982Z,14.30
2022-09-09T02:52:25.966Z,14.60
2022-09-09T02:53:25.972Z,14.60
2022-09-09T02:54:25.948Z,14.50
2022-09-09T02:55:25.936Z,15.60
2022-09-09T02:56:25.923Z,15.70
2022-09-09T02:57:25.921Z,14.20
2022-09-09T02:58:25.920Z,14.20
2022-09-09T02:59:25.893Z,14.40
2022-09-09T03:00:25.884Z,14.30
2022-09-09T03:01:25.942Z,14.40
2022-09-09T03:02:25.930Z,14.20
2022-09-09T03:03:25.883Z,14.50
2022-09-09T03:04:25.837Z,14.70
2022-09-09T03:05:25.826Z,14.30
2022-09-09T03:06:25.814Z,14.70
2022-09-09T03:07:25.808Z,14.20
2022-09-09T03:08:25.801Z,14.30
2022-09-09T03:09:25.783Z,14.50
2022-09-09T03:10:25.769Z,14.50
2022-09-09T03:11:25.759Z,14.10
2022-09-09T03:12:25.750Z,14.30
2022-09-09T03:13:25.752Z,15.10
2022-09-09T03:14:25.726Z,14.30
2022-09-09T03:15:25.716Z,14.50
2022-09-09T03:16:25.748Z,14.60
2022-09-09T03:17:25.725Z,14.30
2022-09-09T03:18:25.691Z,14.50
2022-09-09T03:19:25.676Z,14.30
2022-09-09T03:20:25.663Z,14.40
2022-09-09T03:21:25.651Z,14.60
2022-09-09T03:22:25.642Z,14.90
2022-09-09T03:23:25.642Z,14.10
2022-09-09T03:24:25.619Z,14.70
2022-09-09T03:25:25.608Z,14.50
2022-09-09T03:26:25.594Z,15.40
2022-09-09T03:27:25.588Z,14.80
2022-09-09T03:28:25.674Z,14.50
2022-09-09T03:29:25.564Z,14.30
2022-09-09T03:30:25.550Z,14.40
2022-09-09T03:31:25.566Z,14.30
2022-09-09T03:32:25.528Z,14.60
2022-09-09T03:33:25.547Z,14.80
2022-09-09T03:34:25.506Z,16.40
2022-09-09T03:35:25.497Z,14.50
2022-09-09T03:36:25.487Z,14.30
2022-09-09T03:37:25.474Z,15.50
2022-09-09T03:38:25.479Z,14.30
2022-09-09T03:39:25.456Z,14.50
2022-09-09T03:40:25.442Z,14.10
2022-09-09T03:41:25.437Z,14.90
2022-09-09T03:42:25.420Z,14.60
2022-09-09T03:43:25.428Z,14.30
2022-09-09T03:44:25.406Z,15.40
2022-09-09T03:45:25.477Z,14.10
2022-09-09T03:46:25.385Z,14.00
2022-09-09T03:47:25.368Z,15.00
2022-09-09T03:48:25.367Z,14.00
2022-09-09T03:49:25.367Z,14.10
2022-09-09T03:50:25.332Z,14.20
2022-09-09T03:51:25.340Z,14.40
2022-09-09T03:52:25.311Z,13.80
2022-09-09T03:53:25.311Z,14.10
2022-09-09T03:54:25.290Z,15.30
2022-09-09T03:55:25.284Z,13.80
2022-09-09T03:56:25.269Z,14.10
2022-09-09T03:57:25.288Z,15.60
2022-09-09T03:58:25.261Z,14.70
2022-09-09T03:59:25.236Z,13.90
2022-09-09T04:00:25.223Z,14.10
2022-09-09T04:01:25.251Z,14.90
2022-09-09T04:02:25.284Z,13.90
2022-09-09T04:03:27.963Z,13.90
2022-09-09T04:04:25.179Z,14.00
2022-09-09T04:05:25.186Z,15.80
2022-09-09T04:06:25.157Z,14.70
2022-09-09T04:07:25.147Z,14.00
2022-09-09T04:08:25.147Z,15.40
2022-09-09T04:09:25.128Z,15.40
2022-09-09T04:10:25.114Z,13.80
2022-09-09T04:11:25.107Z,14.10
2022-09-09T04:12:25.091Z,14.30
2022-09-09T04:13:25.100Z,14.40
2022-09-09T04:14:25.109Z,14.20
2022-09-09T04:15:25.108Z,15.10
2022-09-09T04:16:25.095Z,14.30
2022-09-09T04:17:25.046Z,14.30
2022-09-09T04:18:25.037Z,14.10
2022-09-09T04:19:25.022Z,14.40
2022-09-09T04:20:25.006Z,14.60
2022-09-09T04:21:25.031Z,14.20
2022-09-09T04:22:24.990Z,14.20
2022-09-09T04:23:25.012Z,15.50
2022-09-09T04:24:24.959Z,14.00
2022-09-09T04:25:25.030Z,14.20
2022-09-09T04:26:24.959Z,15.80
2022-09-09T04:27:24.942Z,14.20
2022-09-09T04:28:24.953Z,14.00
2022-09-09T04:29:24.907Z,15.30
2022-09-09T04:30:24.904Z,14.60
2022-09-09T04:31:25.096Z,14.00
2022-09-09T04:32:24.950Z,14.20
2022-09-09T04:33:24.882Z,14.50
2022-09-09T04:34:24.857Z,14.80
2022-09-09T04:35:24.841Z,14.20
2022-09-09T04:36:24.833Z,14.60
2022-09-09T04:37:24.849Z,14.30
2022-09-09T04:38:24.812Z,14.90
2022-09-09T04:39:24.809Z,14.30
2022-09-09T04:40:24.790Z,14.20
2022-09-09T04:41:24.781Z,14.40
2022-09-09T04:42:24.793Z,15.20
2022-09-09T04:43:24.769Z,15.30
2022-09-09T04:44:24.755Z,14.40
2022-09-09T04:45:24.774Z,14.70
2022-09-09T04:46:24.721Z,14.40
2022-09-09T04:47:24.709Z,14.40
2022-09-09T04:48:24.697Z,15.00
2022-09-09T04:49:24.725Z,14.40
2022-09-09T04:50:24.676Z,14.50
2022-09-09T04:51:24.676Z,14.60
2022-09-09T04:52:24.654Z,15.00
2022-09-09T04:53:24.659Z,15.10
2022-09-09T04:54:24.645Z,14.00
2022-09-09T04:55:24.625Z,14.50
2022-09-09T04:56:24.610Z,14.70
2022-09-09T04:57:24.604Z,14.50
2022-09-09T04:58:24.590Z,14.20
2022-09-09T04:59:24.588Z,14.60
2022-09-09T05:00:24.568Z,14.20
2022-09-09T05:01:24.605Z,14.40
2022-09-09T05:02:27.509Z,14.70
2022-09-09T05:03:25.534Z,15.70
2022-09-09T05:04:24.532Z,14.60
2022-09-09T05:05:24.514Z,14.30
2022-09-09T05:06:24.506Z,14.40
2022-09-09T05:07:24.493Z,14.50
2022-09-09T05:08:24.482Z,14.70
2022-09-09T05:09:24.496Z,14.80
2022-09-09T05:10:24.458Z,14.80
2022-09-09T05:11:24.450Z,15.20
2022-09-09T05:12:24.439Z,14.30
2022-09-09T05:13:24.426Z,14.60
2022-09-09T05:14:24.428Z,14.50
2022-09-09T05:15:24.405Z,14.80
2022-09-09T05:16:24.496Z,14.90
2022-09-09T05:17:24.391Z,15.00
2022-09-09T05:18:24.372Z,15.60
2022-09-09T05:19:24.370Z,14.70
2022-09-09T05:20:24.352Z,15.80
2022-09-09T05:21:24.336Z,16.30
2022-09-09T05:22:24.329Z,15.20
2022-09-09T05:23:24.316Z,14.70
2022-09-09T05:24:24.325Z,15.20
2022-09-09T05:25:24.311Z,14.80
2022-09-09T05:26:24.284Z,14.90
2022-09-09T05:27:24.272Z,15.20
2022-09-09T05:28:24.319Z,14.50
2022-09-09T05:29:24.352Z,14.70
2022-09-09T05:30:24.263Z,14.90
2022-09-09T05:31:25.927Z,15.10
2022-09-09T05:32:24.236Z,16.60
2022-09-09T05:33:24.206Z,15.40
2022-09-09T05:34:24.210Z,14.40
2022-09-09T05:35:24.191Z,14.40
2022-09-09T05:36:24.182Z,14.70
2022-09-09T05:37:24.164Z,14.30
2022-09-09T05:38:28.469Z,15.80
2022-09-09T05:39:24.156Z,14.50
2022-09-09T05:40:24.133Z,14.40
2022-09-09T05:41:24.245Z,15.10
2022-09-09T05:42:24.115Z,15.70
2022-09-09T05:43:24.096Z,14.10
2022-09-09T05:44:24.099Z,14.60
2022-09-09T05:45:24.075Z,15.30
2022-09-09T05:46:24.142Z,14.80
2022-09-09T05:47:24.054Z,14.90
2022-09-09T05:48:24.042Z,14.50
2022-09-09T05:49:24.044Z,14.90
2022-09-09T05:50:24.809Z,15.50
2022-09-09T05:51:24.010Z,14.80
2022-09-09T05:52:23.999Z,14.80
2022-09-09T05:53:24.078Z,14.30
2022-09-09T05:54:23.991Z,14.30
2022-09-09T05:55:23.980Z,15.30
2022-09-09T05:56:23.958Z,14.80
2022-09-09T05:57:23.962Z,14.10
2022-09-09T05:58:23.940Z,14.70
2022-09-09T05:59:23.932Z,14.50
2022-09-09T06:00:23.923Z,14.50
2022-09-09T06:01:23.901Z,16.60
2022-09-09T06:02:23.995Z,14.30
2022-09-09T06:03:23.890Z,14.50
2022-09-09T06:04:23.878Z,14.40
2022-09-09T06:05:23.898Z,14.70
2022-09-09T06:06:23.852Z,14.20
2022-09-09T06:07:23.849Z,14.50
2022-09-09T06:08:23.825Z,14.80
2022-09-09T06:09:23.835Z,14.90
2022-09-09T06:10:23.886Z,15.10
2022-09-09T06:11:23.788Z,14.90
2022-09-09T06:12:23.780Z,14.40
2022-09-09T06:13:23.796Z,14.40
2022-09-09T06:14:23.788Z,14.50
2022-09-09T06:15:23.745Z,14.00
2022-09-09T06:16:23.757Z,15.40
2022-09-09T06:17:23.725Z,14.80
2022-09-09T06:18:23.717Z,14.20
2022-09-09T06:19:23.713Z,14.50
2022-09-09T06:20:23.691Z,14.30
2022-09-09T06:21:23.679Z,14.00
2022-09-09T06:22:23.674Z,13.70
2022-09-09T06:23:23.668Z,13.70
2022-09-09T06:24:23.670Z,15.40
2022-09-09T06:25:23.637Z,14.40
2022-09-09T06:26:23.628Z,14.60
2022-09-09T06:27:23.617Z,15.20
2022-09-09T06:28:23.609Z,15.00
2022-09-09T06:29:23.623Z,14.30
2022-09-09T06:30:23.589Z,14.50
2022-09-09T06:31:28.043Z,14.20
2022-09-09T06:32:24.562Z,14.30
2022-09-09T06:33:23.551Z,14.30
2022-09-09T06:34:23.554Z,14.70
2022-09-09T06:35:23.530Z,14.20
2022-09-09T06:36:23.549Z,14.10
2022-09-09T06:37:23.511Z,14.70
2022-09-09T06:38:23.499Z,13.90
2022-09-09T06:39:23.498Z,13.80
2022-09-09T06:40:23.483Z,14.20
2022-09-09T06:41:23.474Z,15.00
2022-09-09T06:42:23.466Z,14.40
2022-09-09T06:43:23.445Z,14.20
2022-09-09T06:44:23.450Z,14.70
2022-09-09T06:45:23.446Z,14.30
2022-09-09T06:46:23.439Z,14.00
2022-09-09T06:47:23.430Z,14.40
2022-09-09T06:48:23.429Z,14.20
2022-09-09T06:49:23.395Z,14.10
2022-09-09T06:50:23.374Z,14.30
2022-09-09T06:51:23.363Z,14.40
2022-09-09T06:52:23.351Z,14.40
2022-09-09T06:53:23.401Z,14.70
2022-09-09T06:54:23.341Z,14.20
2022-09-09T06:55:23.358Z,14.10
2022-09-09T06:56:23.310Z,14.90
2022-09-09T06:57:38.444Z,14.10
2022-09-09T06:58:24.295Z,14.10
2022-09-09T06:59:23.275Z,14.30
2022-09-09T07:00:23.352Z,14.80
2022-09-09T07:01:23.281Z,14.60
2022-09-09T07:02:23.285Z,13.80
2022-09-09T07:03:23.240Z,14.10
2022-09-09T07:04:23.250Z,14.00
2022-09-09T07:05:23.207Z,14.10
2022-09-09T07:06:23.198Z,15.00
2022-09-09T07:07:23.186Z,14.20
2022-09-09T07:08:23.191Z,14.20
2022-09-09T07:09:23.285Z,14.00
2022-09-09T07:10:23.241Z,13.90
2022-09-09T07:11:23.145Z,14.00
2022-09-09T07:12:23.132Z,13.90
2022-09-09T07:13:23.131Z,13.70
2022-09-09T07:14:23.125Z,14.10
2022-09-09T07:15:23.105Z,12.80
2022-09-09T07:16:23.225Z,13.00
2022-09-09T07:17:23.094Z,13.10
2022-09-09T07:18:23.088Z,13.40
2022-09-09T07:19:23.060Z,12.90
2022-09-09T07:20:23.139Z,13.00
2022-09-09T07:21:23.041Z,13.20
2022-09-09T07:22:23.028Z,13.50
2022-09-09T07:23:23.026Z,13.20
2022-09-09T07:24:23.006Z,13.30
2022-09-09T07:25:22.999Z,13.10
2022-09-09T07:26:22.987Z,12.90
2022-09-09T07:27:22.991Z,12.70
2022-09-09T07:28:23.008Z,12.80
2022-09-09T07:29:22.952Z,13.40
2022-09-09T07:30:27.035Z,13.00
2022-09-09T07:31:23.030Z,13.30
2022-09-09T07:32:22.920Z,13.70
2022-09-09T07:33:22.942Z,12.90
2022-09-09T07:34:22.906Z,12.80
2022-09-09T07:35:22.919Z,13.10
2022-09-09T07:36:22.892Z,12.70
2022-09-09T07:37:22.871Z,12.80
2022-09-09T07:38:22.867Z,12.60
2022-09-09T07:39:22.853Z,12.90
2022-09-09T07:40:22.854Z,14.60
2022-09-09T07:41:22.834Z,12.70
2022-09-09T07:42:22.816Z,12.60
2022-09-09T07:43:22.821Z,12.40
2022-09-09T07:44:22.800Z,14.00
2022-09-09T07:45:22.784Z,12.90
2022-09-09T07:46:22.879Z,12.70
2022-09-09T07:47:22.785Z,13.80
2022-09-09T07:48:22.763Z,12.60
2022-09-09T07:49:28.547Z,12.10
2022-09-09T07:50:23.735Z,12.70
2022-09-09T07:51:22.722Z,12.50
2022-09-09T07:52:22.723Z,12.10
2022-09-09T07:53:22.703Z,12.10
2022-09-09T07:54:22.695Z,12.50
2022-09-09T07:55:22.688Z,12.60
2022-09-09T07:56:22.673Z,12.30
2022-09-09T07:57:22.676Z,12.30
2022-09-09T07:58:22.656Z,12.30
2022-09-09T07:59:22.675Z,12.00
2022-09-09T08:00:22.633Z,12.00
2022-09-09T08:01:22.689Z,12.60
2022-09-09T08:02:22.635Z,13.20
2022-09-09T08:03:22.634Z,12.00
2022-09-09T08:04:22.593Z,12.70
2022-09-09T08:05:22.596Z,13.10
2022-09-09T08:06:22.572Z,12.00
2022-09-09T08:07:22.573Z,11.90
2022-09-09T08:08:22.553Z,12.60
2022-09-09T08:09:22.544Z,12.10
2022-09-09T08:10:22.532Z,12.10
2022-09-09T08:11:22.525Z,12.80
2022-09-09T08:12:22.522Z,13.20
2022-09-09T08:13:22.503Z,12.30
2022-09-09T08:14:22.490Z,12.40
2022-09-09T08:15:22.482Z,13.20
2022-09-09T08:16:22.508Z,12.00
2022-09-09T08:17:22.471Z,12.10
2022-09-09T08:18:22.449Z,12.70
2022-09-09T08:19:22.440Z,12.30
2022-09-09T08:20:22.444Z,12.50
2022-09-09T08:21:22.436Z,13.30
2022-09-09T08:22:22.426Z,13.10
2022-09-09T08:23:22.403Z,13.00
2022-09-09T08:24:22.387Z,13.10
2022-09-09T08:25:22.394Z,13.40
2022-09-09T08:26:22.387Z,13.20
2022-09-09T08:27:22.367Z,13.00
2022-09-09T08:28:22.347Z,12.70
2022-09-09T08:29:22.353Z,12.90
2022-09-09T08:30:22.324Z,13.70
2022-09-09T08:31:22.362Z,13.20
2022-09-09T08:32:22.315Z,13.60
2022-09-09T08:33:22.297Z,13.30
2022-09-09T08:34:22.284Z,13.10
2022-09-09T08:35:22.270Z,14.20
2022-09-09T08:36:22.261Z,13.40
2022-09-09T08:37:22.279Z,13.40
2022-09-09T08:38:22.242Z,13.10
2022-09-09T08:39:22.256Z,13.70
2022-09-09T08:40:22.221Z,13.40
2022-09-09T08:41:22.206Z,13.30
2022-09-09T08:42:22.211Z,13.70
2022-09-09T08:43:22.184Z,13.80
2022-09-09T08:44:22.187Z,13.20
2022-09-09T08:45:22.167Z,14.10
2022-09-09T08:46:22.188Z,13.30
2022-09-09T08:47:22.155Z,13.50
2022-09-09T08:48:22.145Z,13.90
2022-09-09T08:49:22.122Z,13.30
2022-09-09T08:50:22.112Z,14.10
2022-09-09T08:51:22.097Z,13.60
2022-09-09T08:52:22.106Z,13.70
2022-09-09T08:53:22.098Z,14.00
2022-09-09T08:54:48.517Z,13.50
2022-09-09T08:55:23.053Z,14.10
2022-09-09T08:56:22.047Z,14.20
2022-09-09T08:57:22.032Z,13.90
2022-09-09T08:58:22.036Z,13.70
2022-09-09T08:59:22.012Z,13.80
2022-09-09T09:00:22.002Z,14.70
2022-09-09T09:01:22.036Z,14.70
2022-09-09T09:02:21.979Z,13.40
2022-09-09T09:03:21.978Z,13.10
2022-09-09T09:04:22.019Z,13.40
2022-09-09T09:05:21.947Z,13.40
2022-09-09T09:06:21.939Z,13.50
2022-09-09T09:07:21.925Z,13.20
2022-09-09T09:08:21.931Z,13.40
2022-09-09T09:09:21.922Z,13.70
2022-09-09T09:10:40.431Z,13.80
2022-09-09T09:11:22.879Z,13.30
2022-09-09T09:12:21.879Z,13.60
2022-09-09T09:13:21.871Z,13.30
2022-09-09T09:14:21.885Z,13.10
2022-09-09T09:15:21.836Z,13.60
2022-09-09T09:16:21.980Z,12.70
2022-09-09T09:17:21.823Z,13.70
2022-09-09T09:18:21.817Z,13.10
2022-09-09T09:19:21.794Z,13.30
2022-09-09T09:20:21.819Z,13.10
2022-09-09T09:21:21.779Z,13.30
2022-09-09T09:22:21.775Z,12.70
2022-09-09T09:23:21.762Z,13.20
2022-09-09T09:24:22.249Z,13.00
2022-09-09T09:25:21.753Z,12.50
2022-09-09T09:26:21.722Z,12.80
2022-09-09T09:27:21.735Z,13.00
2022-09-09T09:28:21.699Z,12.70
2022-09-09T09:29:21.692Z,12.60
2022-09-09T09:30:28.519Z,12.50
2022-09-09T09:31:22.698Z,13.60
2022-09-09T09:32:21.670Z,12.60
2022-09-09T09:33:21.653Z,12.50
2022-09-09T09:34:21.674Z,11.90
2022-09-09T09:35:21.643Z,13.10
2022-09-09T09:36:21.668Z,12.30
2022-09-09T09:37:21.619Z,12.40
2022-09-09T09:40:22.577Z,12.50
2022-09-09T09:41:21.591Z,13.50
2022-09-09T09:42:23.818Z,12.20
2022-09-09T09:43:21.550Z,12.00
2022-09-09T09:44:21.534Z,12.10
2022-09-09T09:45:21.553Z,12.70
2022-09-09T09:46:21.632Z,12.30
2022-09-09T09:47:21.645Z,12.50
2022-09-09T09:48:21.492Z,12.10
2022-09-09T09:49:21.486Z,12.20
2022-09-09T09:50:21.525Z,13.20
2022-09-09T09:51:21.471Z,13.10
2022-09-09T09:52:21.465Z,12.20
2022-09-09T09:53:21.448Z,12.50
2022-09-09T09:54:21.433Z,12.40
2022-09-09T09:55:21.426Z,13.30
2022-09-09T09:56:21.440Z,12.50
2022-09-09T09:57:21.519Z,12.70
2022-09-09T09:58:21.397Z,12.30
2022-09-09T09:59:29.694Z,11.90
2022-09-09T10:00:22.374Z,12.70
2022-09-09T10:01:21.401Z,12.80
2022-09-09T10:02:21.378Z,12.50
2022-09-09T10:03:21.348Z,12.40
2022-09-09T10:04:21.414Z,12.20
2022-09-09T10:05:26.554Z,12.50
2022-09-09T10:06:22.320Z,12.80
2022-09-09T10:07:21.324Z,12.20
2022-09-09T10:08:21.301Z,12.20
2022-09-09T10:09:21.290Z,12.70
2022-09-09T10:10:21.277Z,13.40
2022-09-09T10:11:21.270Z,13.00
2022-09-09T10:12:21.286Z,14.20
2022-09-09T10:13:21.266Z,12.50
2022-09-09T10:14:21.239Z,12.50
2022-09-09T10:15:21.226Z,13.40
2022-09-09T10:16:21.217Z,12.70
2022-09-09T10:17:21.225Z,12.30
2022-09-09T10:18:21.196Z,12.00
2022-09-09T10:19:21.187Z,12.30
2022-09-09T10:20:21.196Z,12.50
2022-09-09T10:21:21.168Z,11.70
2022-09-09T10:22:21.186Z,12.70
2022-09-09T10:23:21.180Z,12.50
2022-09-09T10:24:21.165Z,11.90
2022-09-09T10:25:21.130Z,12.20
2022-09-09T10:26:21.116Z,12.30
2022-09-09T10:27:21.177Z,12.10
2022-09-09T10:28:21.107Z,12.20
2022-09-09T10:29:21.105Z,12.40
2022-09-09T10:30:21.076Z,11.80
2022-09-09T10:31:21.138Z,13.50
2022-09-09T10:32:21.063Z,12.60
2022-09-09T10:33:21.058Z,11.90
2022-09-09T10:34:21.038Z,12.40
2022-09-09T10:35:21.025Z,12.20
2022-09-09T10:36:21.035Z,13.50
2022-09-09T10:37:21.031Z,13.00
2022-09-09T10:38:20.995Z,12.40
2022-09-09T10:39:20.984Z,12.10
2022-09-09T10:40:21.061Z,13.30
2022-09-09T10:41:20.964Z,12.30
2022-09-09T10:42:21.630Z,12.60
2022-09-09T10:43:20.954Z,13.10
2022-09-09T10:44:20.933Z,12.00
2022-09-09T10:45:20.942Z,12.30
2022-09-09T10:46:20.964Z,13.80
2022-09-09T10:47:20.901Z,12.60
2022-09-09T10:48:20.930Z,12.40
2022-09-09T10:49:23.220Z,12.90
2022-09-09T10:50:20.873Z,12.60
2022-09-09T10:51:20.859Z,12.60
2022-09-09T10:52:20.859Z,13.10
2022-09-09T10:53:20.837Z,12.90
2022-09-09T10:54:20.824Z,12.20
2022-09-09T10:55:20.821Z,13.10
2022-09-09T10:56:20.822Z,13.00
2022-09-09T10:57:20.809Z,12.40
2022-09-09T10:58:20.791Z,13.20
2022-09-09T10:59:20.773Z,12.70
2022-09-09T11:00:20.763Z,13.50
2022-09-09T11:01:20.823Z,13.20
2022-09-09T11:02:20.754Z,12.80
2022-09-09T11:03:20.733Z,12.60
2022-09-09T11:04:20.759Z,13.30
2022-09-09T11:05:20.710Z,13.30
2022-09-09T11:06:20.766Z,13.00
2022-09-09T11:07:20.706Z,12.80
2022-09-09T11:08:20.721Z,12.90
2022-09-09T11:09:20.675Z,12.60
2022-09-09T11:10:20.655Z,13.40
2022-09-09T11:11:20.647Z,12.60
2022-09-09T11:12:20.646Z,12.80
2022-09-09T11:13:20.623Z,12.50
2022-09-09T11:14:20.610Z,12.90
2022-09-09T11:15:21.171Z,12.50
2022-09-09T11:16:20.636Z,12.60
2022-09-09T11:17:20.741Z,14.30
2022-09-09T11:18:20.585Z,12.90
2022-09-09T11:19:20.562Z,12.40
2022-09-09T11:20:20.550Z,13.00
2022-09-09T11:21:20.538Z,12.60
2022-09-09T11:22:20.540Z,12.70
2022-09-09T11:23:20.514Z,13.30
2022-09-09T11:24:20.531Z,13.20
2022-09-09T11:25:20.494Z,12.80
2022-09-09T11:26:20.479Z,13.50
2022-09-09T11:27:20.519Z,13.60
2022-09-09T11:28:20.513Z,13.20
2022-09-09T11:29:20.491Z,12.60
2022-09-09T11:30:44.257Z,13.40
2022-09-09T11:31:21.463Z,13.60
2022-09-09T11:32:20.423Z,12.80
2022-09-09T11:33:20.422Z,12.90
2022-09-09T11:34:20.392Z,13.10
2022-09-09T11:35:20.384Z,12.80
2022-09-09T11:36:20.370Z,13.00
2022-09-09T11:37:20.376Z,12.90
2022-09-09T11:38:20.348Z,12.90
2022-09-09T11:39:20.344Z,12.40
2022-09-09T11:40:20.323Z,12.60
2022-09-09T11:41:21.762Z,12.70
2022-09-09T11:42:20.311Z,12.60
2022-09-09T11:43:20.298Z,12.80
2022-09-09T11:44:20.310Z,12.50
2022-09-09T11:45:20.292Z,13.30
2022-09-09T11:46:20.340Z,12.70
2022-09-09T11:47:20.260Z,13.90
2022-09-09T11:48:20.239Z,12.70
2022-09-09T11:49:20.247Z,12.50
2022-09-09T11:50:20.213Z,12.40
2022-09-09T11:51:20.218Z,13.00
2022-09-09T11:52:20.204Z,13.00
2022-09-09T11:53:20.182Z,12.60
2022-09-09T11:54:20.173Z,12.70
2022-09-09T11:55:20.516Z,13.00
2022-09-09T11:56:20.149Z,13.30
2022-09-09T11:57:20.155Z,12.90
2022-09-09T11:58:20.128Z,12.90
2022-09-09T11:59:20.118Z,13.00
2022-09-09T12:00:20.101Z,12.90
2022-09-09T12:01:20.093Z,13.10
2022-09-09T12:02:20.159Z,13.00
2022-09-09T12:03:20.068Z,13.60
2022-09-09T12:04:22.379Z,13.30
2022-09-09T12:05:20.117Z,12.90
2022-09-09T12:06:20.034Z,13.40
2022-09-09T12:07:20.039Z,14.00
2022-09-09T12:08:20.011Z,13.20
2022-09-09T12:09:20.001Z,13.00
2022-09-09T12:10:19.990Z,13.50
2022-09-09T12:11:19.981Z,13.10
2022-09-09T12:12:19.982Z,13.20
2022-09-09T12:13:19.955Z,13.50
2022-09-09T12:14:19.944Z,12.80
2022-09-09T12:15:19.936Z,13.30
2022-09-09T12:16:19.954Z,13.10
2022-09-09T12:17:20.268Z,13.00
2022-09-09T12:18:19.899Z,13.00
2022-09-09T12:19:22.086Z,12.80
2022-09-09T12:20:19.880Z,12.90
2022-09-09T12:21:19.882Z,12.70
2022-09-09T12:22:19.866Z,12.50
2022-09-09T12:23:19.844Z,12.90
2022-09-09T12:24:19.831Z,12.50
2022-09-09T12:25:23.171Z,13.60
2022-09-09T12:26:19.811Z,12.70
2022-09-09T12:27:19.837Z,13.20
2022-09-09T12:28:19.786Z,12.70
2022-09-09T12:29:19.833Z,12.80
2022-09-09T12:30:19.765Z,13.70
2022-09-09T12:31:19.791Z,12.70
2022-09-09T12:32:19.762Z,13.00
2022-09-09T12:33:19.741Z,12.70
2022-09-09T12:34:19.721Z,12.40
2022-09-09T12:35:19.712Z,14.00
2022-09-09T12:36:19.709Z,12.80
2022-09-09T12:37:20.360Z,13.00
2022-09-09T12:38:19.680Z,12.60
2022-09-09T12:39:19.669Z,13.60
2022-09-09T12:40:19.658Z,14.10
2022-09-09T12:41:19.692Z,13.00
2022-09-09T12:42:19.640Z,13.00
2022-09-09T12:43:19.633Z,13.10
2022-09-09T12:44:19.611Z,12.90
2022-09-09T12:45:19.603Z,13.20
2022-09-09T12:46:19.622Z,12.70
2022-09-09T12:47:19.629Z,12.20
2022-09-09T12:48:19.567Z,12.50
2022-09-09T12:49:19.557Z,12.70
2022-09-09T12:50:19.545Z,12.20
2022-09-09T12:51:19.537Z,12.50
2022-09-09T12:52:19.535Z,12.30
2022-09-09T12:53:22.086Z,12.70
2022-09-09T12:54:19.500Z,12.70